Time;durP1;ratioP1;P1;durP2;ratioP2;P2;SDS_P1;SDS_P2;PMS_P1;PMS_P2;Temp;Humidity;BMP_temperature;BMP_pressure;BME280_temperature;BME280_humidity;BME280_pressure;Samples;Min_cycle;Max_cycle;Signal;HPM_P1;HPM_P2
2021/03/02 00:05:47;;;;;;;5.45;4.55;;;;;;;;;;4626407;28;20225;-55
2021/03/02 00:08:14;;;;;;;6.70;4.85;;;;;;;;;;4224681;33;20090;-58
2021/03/02 00:10:42;;;;;;;5.40;4.60;;;;;;;;;;4216798;33;20513;-59
2021/03/02 00:13:10;;;;;;;8.05;4.35;;;;;;;;;;4204256;34;20118;-58
2021/03/02 00:15:37;;;;;;;5.82;4.75;;;;;;;;;;4217053;33;20128;-58
2021/03/02 00:18:03;;;;;;;5.97;4.68;;;;;;;;;;4218089;34;20097;-58
2021/03/02 00:20:29;;;;;;;4.85;4.20;;;;;;;;;;4229504;33;20117;-58
2021/03/02 00:22:59;;;;;;;5.28;4.50;;;;;;;;;;4226889;33;20109;-58
2021/03/02 00:25:30;;;;;;;6.40;4.30;;;;;;;;;;4220026;34;20574;-58
2021/03/02 00:27:56;;;;;;;6.95;4.43;;;;;;;;;;4220263;34;20121;-58
2021/03/02 00:30:23;;;;;;;5.45;4.40;;;;;;;;;;4220068;34;20532;-58
2021/03/02 00:32:48;;;;;;;6.47;4.97;;;;;;;;;;4220451;34;20093;-58
2021/03/02 00:35:15;;;;;;;5.68;4.40;;;;;;;;;;4195442;34;20203;-58
2021/03/02 00:37:41;;;;;;;5.00;4.43;;;;;;;;;;4220058;34;20098;-58
2021/03/02 00:40:07;;;;;;;6.00;4.40;;;;;;;;;;4219794;34;20106;-58
2021/03/02 00:42:33;;;;;;;6.70;4.70;;;;;;;;;;4220010;34;20500;-58
2021/03/02 00:44:59;;;;;;;6.65;4.68;;;;;;;;;;4219857;34;20108;-58
2021/03/02 00:47:25;;;;;;;5.72;4.15;;;;;;;;;;4207055;34;20125;-58
2021/03/02 00:49:51;;;;;;;4.62;4.05;;;;;;;;;;4219807;34;20129;-58
2021/03/02 00:52:17;;;;;;;5.95;4.12;;;;;;;;;;4220131;34;20144;-58
2021/03/02 00:54:43;;;;;;;6.03;4.35;;;;;;;;;;4219748;34;20192;-58
2021/03/02 00:57:09;;;;;;;5.70;4.72;;;;;;;;;;4220138;34;20143;-58
2021/03/02 00:59:35;;;;;;;5.70;4.65;;;;;;;;;;4219782;34;20117;-58
2021/03/02 01:02:01;;;;;;;5.55;4.60;;;;;;;;;;4219771;34;20461;-58
2021/03/02 01:04:27;;;;;;;7.12;4.32;;;;;;;;;;4206884;34;20123;-58
2021/03/02 01:06:53;;;;;;;4.82;4.32;;;;;;;;;;4208962;34;20106;-58
2021/03/02 01:09:19;;;;;;;5.70;3.87;;;;;;;;;;4206896;34;20245;-58
2021/03/02 01:11:47;;;;;;;6.62;4.62;;;;;;;;;;4219901;33;20141;-58
2021/03/02 01:14:13;;;;;;;7.07;4.18;;;;;;;;;;4206836;34;20438;-58
2021/03/02 01:16:39;;;;;;;5.07;4.40;;;;;;;;;;4206673;34;20100;-58
2021/03/02 01:19:05;;;;;;;5.55;4.00;;;;;;;;;;4219718;34;20118;-58
2021/03/02 01:21:31;;;;;;;5.65;4.62;;;;;;;;;;4219607;33;20101;-58
2021/03/02 01:23:57;;;;;;;5.70;4.30;;;;;;;;;;4219910;34;20117;-58
2021/03/02 01:26:23;;;;;;;5.43;4.50;;;;;;;;;;4206868;34;20135;-58
2021/03/02 01:28:48;;;;;;;5.12;4.62;;;;;;;;;;4206780;34;20119;-58
2021/03/02 01:31:14;;;;;;;6.28;4.62;;;;;;;;;;4206486;34;20109;-58
2021/03/02 01:33:40;;;;;;;5.97;4.05;;;;;;;;;;4219633;34;20526;-58
2021/03/02 01:36:06;;;;;;;4.65;4.15;;;;;;;;;;4219470;33;20098;-58
2021/03/02 01:38:32;;;;;;;5.40;4.68;;;;;;;;;;4219738;34;20101;-58
2021/03/02 01:40:58;;;;;;;6.35;4.28;;;;;;;;;;4219471;33;20534;-57
2021/03/02 01:43:24;;;;;;;5.85;4.68;;;;;;;;;;4219497;34;20593;-58
2021/03/02 01:45:50;;;;;;;5.78;4.60;;;;;;;;;;4219269;34;20117;-58
2021/03/02 01:48:16;;;;;;;5.85;4.65;;;;;;;;;;4219482;34;20125;-58
2021/03/02 01:50:42;;;;;;;5.28;4.55;;;;;;;;;;4219221;34;20131;-58
2021/03/02 01:53:08;;;;;;;5.05;3.92;;;;;;;;;;4206564;34;20132;-58
2021/03/02 01:55:34;;;;;;;5.65;4.85;;;;;;;;;;4219369;34;20117;-58
2021/03/02 01:57:59;;;;;;;5.47;4.68;;;;;;;;;;4219666;34;20129;-58
2021/03/02 02:00:34;;;;;;;5.87;4.70;;;;;;;;;;4219245;34;20269;-58
2021/03/02 02:03:37;;;;;;;5.45;4.87;;;;;;;;;;4206722;34;20109;-58
2021/03/02 02:06:12;;;;;;;5.20;4.70;;;;;;;;;;4218915;34;20500;-59
2021/03/02 02:09:02;;;;;;;5.80;4.62;;;;;;;;;;4219214;34;20446;-58
2021/03/02 02:11:33;;;;;;;4.55;4.15;;;;;;;;;;4217955;33;20125;-59
2021/03/02 02:14:22;;;;;;;5.30;4.50;;;;;;;;;;4206106;34;20498;-58
2021/03/02 02:16:50;;;;;;;4.65;4.15;;;;;;;;;;4217743;33;20200;-58
2021/03/02 02:19:45;;;;;;;5.15;4.65;;;;;;;;;;4217682;34;20116;-58
2021/03/02 02:22:20;;;;;;;5.43;4.33;;;;;;;;;;4219084;34;20102;-58
2021/03/02 02:25:08;;;;;;;6.87;5.10;;;;;;;;;;4218998;33;20105;-58
2021/03/02 02:27:34;;;;;;;5.50;4.60;;;;;;;;;;4217714;34;20256;-58
2021/03/02 02:30:00;;;;;;;5.53;4.28;;;;;;;;;;4217758;33;20211;-58
2021/03/02 02:32:26;;;;;;;6.68;4.70;;;;;;;;;;4217716;34;20099;-58
2021/03/02 02:34:52;;;;;;;7.97;5.07;;;;;;;;;;4217690;33;20169;-58
2021/03/02 02:37:18;;;;;;;4.90;4.18;;;;;;;;;;4217569;34;20106;-58
2021/03/02 02:39:44;;;;;;;5.45;4.47;;;;;;;;;;4194286;33;20113;-58
2021/03/02 02:42:10;;;;;;;6.47;4.80;;;;;;;;;;4216976;34;20444;-59
2021/03/02 02:44:36;;;;;;;4.97;4.45;;;;;;;;;;4217468;34;20136;-58
2021/03/02 02:47:02;;;;;;;4.90;4.37;;;;;;;;;;4217399;33;20121;-59
2021/03/02 02:49:28;;;;;;;5.80;4.57;;;;;;;;;;4217451;34;20147;-60
2021/03/02 02:51:53;;;;;;;6.12;4.57;;;;;;;;;;4217393;33;20105;-58
2021/03/02 02:54:19;;;;;;;6.37;4.93;;;;;;;;;;4218745;34;20629;-58
2021/03/02 02:56:45;;;;;;;5.97;4.60;;;;;;;;;;4217361;33;20478;-54
2021/03/02 02:59:17;;;;;;;4.87;4.37;;;;;;;;;;4217331;34;20109;-55
2021/03/02 03:01:45;;;;;;;5.35;4.60;;;;;;;;;;4218750;33;20097;-54
2021/03/02 03:04:15;;;;;;;6.10;4.53;;;;;;;;;;4217483;34;20129;-58
2021/03/02 03:06:42;;;;;;;4.87;4.35;;;;;;;;;;4205740;34;20110;-61
2021/03/02 03:09:08;;;;;;;4.37;3.80;;;;;;;;;;4206011;34;20089;-55
2021/03/02 03:11:37;;;;;;;6.70;4.70;;;;;;;;;;4218605;33;20098;-66
2021/03/02 03:14:04;;;;;;;5.70;4.87;;;;;;;;;;4217054;34;20109;-56
2021/03/02 03:16:30;;;;;;;6.25;4.68;;;;;;;;;;4218520;33;20152;-59
2021/03/02 03:18:57;;;;;;;6.22;4.97;;;;;;;;;;4217171;34;20133;-54
2021/03/02 03:21:23;;;;;;;5.25;4.37;;;;;;;;;;4205833;34;20097;-54
2021/03/02 03:23:50;;;;;;;5.00;4.40;;;;;;;;;;4205598;34;20133;-53
2021/03/02 03:26:16;;;;;;;4.80;3.83;;;;;;;;;;4217403;33;20229;-54
2021/03/02 03:28:43;;;;;;;5.95;4.95;;;;;;;;;;4217417;34;20144;-57
2021/03/02 03:31:10;;;;;;;5.32;4.20;;;;;;;;;;4205717;34;20181;-55
2021/03/02 03:33:36;;;;;;;7.87;4.25;;;;;;;;;;4217103;34;20120;-54
2021/03/02 03:36:02;;;;;;;7.50;4.80;;;;;;;;;;4217346;33;20093;-56
2021/03/02 03:38:28;;;;;;;6.25;3.90;;;;;;;;;;4217209;34;20431;-54
2021/03/02 03:40:54;;;;;;;6.45;4.30;;;;;;;;;;4217132;33;20117;-52
2021/03/02 03:43:20;;;;;;;5.60;4.40;;;;;;;;;;4218409;34;20458;-52
2021/03/02 03:45:46;;;;;;;5.00;4.50;;;;;;;;;;4218287;33;20125;-52
2021/03/02 03:48:12;;;;;;;5.30;4.50;;;;;;;;;;4218406;34;20212;-50
2021/03/02 03:50:38;;;;;;;4.93;4.43;;;;;;;;;;4218594;33;20135;-54
2021/03/02 03:53:04;;;;;;;5.45;4.55;;;;;;;;;;4218357;34;20098;-57
2021/03/02 03:55:35;;;;;;;6.10;4.30;;;;;;;;;;4206472;34;20109;-58
2021/03/02 03:58:01;;;;;;;5.20;4.50;;;;;;;;;;4219306;34;20108;-58
2021/03/02 04:00:27;;;;;;;4.87;4.30;;;;;;;;;;4220165;33;20120;-58
2021/03/02 04:02:53;;;;;;;5.72;5.12;;;;;;;;;;4219070;34;20121;-58
2021/03/02 04:05:19;;;;;;;5.20;4.40;;;;;;;;;;4223475;33;20120;-58
2021/03/02 04:07:45;;;;;;;5.82;4.53;;;;;;;;;;4221231;33;20620;-58
2021/03/02 04:10:12;;;;;;;5.72;4.30;;;;;;;;;;4221153;33;20136;-57
2021/03/02 04:12:42;;;;;;;7.55;4.80;;;;;;;;;;4234344;33;20128;-57
2021/03/02 04:15:15;;;;;;;5.32;4.68;;;;;;;;;;4234082;33;20216;-57
2021/03/02 04:17:57;;;;;;;5.43;4.62;;;;;;;;;;4221600;33;20196;-58
2021/03/02 04:20:23;;;;;;;5.32;4.18;;;;;;;;;;4221930;33;20093;-58
2021/03/02 04:22:49;;;;;;;5.85;4.30;;;;;;;;;;4234435;33;20112;-58
2021/03/02 04:25:15;;;;;;;6.30;5.07;;;;;;;;;;4209533;33;20220;-57
2021/03/02 04:27:41;;;;;;;5.57;4.80;;;;;;;;;;4221293;33;20560;-58
2021/03/02 04:30:07;;;;;;;9.45;5.22;;;;;;;;;;4221027;33;20220;-58
2021/03/02 04:32:33;;;;;;;8.02;4.40;;;;;;;;;;4221246;33;20097;-58
2021/03/02 04:34:59;;;;;;;7.35;4.80;;;;;;;;;;4220841;33;20514;-58
2021/03/02 04:37:25;;;;;;;6.22;5.18;;;;;;;;;;4234038;33;20201;-58
2021/03/02 04:39:51;;;;;;;5.87;4.18;;;;;;;;;;4233870;33;20131;-57
2021/03/02 04:42:17;;;;;;;6.45;4.50;;;;;;;;;;4220892;33;20109;-59
2021/03/02 04:44:43;;;;;;;4.80;4.20;;;;;;;;;;4233864;33;20140;-57
2021/03/02 04:47:09;;;;;;;4.82;4.35;;;;;;;;;;4234009;33;20445;-58
2021/03/02 04:49:36;;;;;;;7.15;4.25;;;;;;;;;;4233975;33;20541;-57
2021/03/02 04:52:02;;;;;;;5.32;4.65;;;;;;;;;;4220871;33;20128;-58
2021/03/02 04:54:28;;;;;;;5.18;4.37;;;;;;;;;;4234062;33;20260;-58
2021/03/02 04:56:54;;;;;;;5.72;4.82;;;;;;;;;;4233767;33;20542;-58
2021/03/02 04:59:20;;;;;;;4.47;3.50;;;;;;;;;;4233772;33;20209;-57
2021/03/02 05:01:46;;;;;;;5.12;4.05;;;;;;;;;;4220658;33;20162;-58
2021/03/02 05:04:12;;;;;;;6.22;4.43;;;;;;;;;;4220620;33;20109;-58
2021/03/02 05:06:38;;;;;;;8.15;4.78;;;;;;;;;;4208508;33;20522;-57
2021/03/02 05:09:04;;;;;;;8.50;5.28;;;;;;;;;;4220615;33;20109;-57
2021/03/02 05:11:30;;;;;;;5.80;4.97;;;;;;;;;;4233638;33;20098;-57
2021/03/02 05:13:56;;;;;;;7.25;4.87;;;;;;;;;;4233795;33;20097;-58
2021/03/02 05:16:22;;;;;;;8.07;5.07;;;;;;;;;;4233536;33;20181;-57
2021/03/02 05:18:48;;;;;;;7.97;5.18;;;;;;;;;;4233713;33;20143;-58
2021/03/02 05:21:14;;;;;;;5.97;4.90;;;;;;;;;;4220681;33;20290;-57
2021/03/02 05:23:40;;;;;;;6.53;5.00;;;;;;;;;;4220576;33;20117;-57
2021/03/02 05:26:06;;;;;;;5.87;4.68;;;;;;;;;;4233887;33;20132;-57
2021/03/02 05:28:32;;;;;;;6.40;4.28;;;;;;;;;;4233400;33;20105;-57
2021/03/02 05:30:58;;;;;;;6.22;4.93;;;;;;;;;;4233328;33;20109;-57
2021/03/02 05:33:23;;;;;;;7.37;4.87;;;;;;;;;;4220483;33;20093;-57
2021/03/02 05:35:50;;;;;;;6.60;5.05;;;;;;;;;;4233259;33;20533;-57
2021/03/02 05:38:15;;;;;;;7.45;4.60;;;;;;;;;;4220401;33;20120;-58
2021/03/02 05:40:42;;;;;;;6.57;4.93;;;;;;;;;;4233305;33;20191;-57
2021/03/02 05:43:08;;;;;;;7.55;4.97;;;;;;;;;;4233546;33;20121;-58
2021/03/02 05:45:34;;;;;;;6.15;4.47;;;;;;;;;;4233289;33;20117;-58
2021/03/02 05:48:00;;;;;;;5.12;4.62;;;;;;;;;;4220428;33;20527;-57
2021/03/02 05:50:26;;;;;;;5.93;4.95;;;;;;;;;;4208649;33;20136;-57
2021/03/02 05:52:57;;;;;;;5.35;4.15;;;;;;;;;;4233439;33;20128;-58
2021/03/02 05:55:23;;;;;;;5.53;4.65;;;;;;;;;;4208973;33;20433;-57
2021/03/02 05:57:49;;;;;;;5.80;4.65;;;;;;;;;;4208804;33;20112;-57
2021/03/02 06:00:16;;;;;;;5.62;4.50;;;;;;;;;;4220179;33;20100;-58
2021/03/02 06:02:42;;;;;;;5.20;4.37;;;;;;;;;;4233098;33;20110;-55
2021/03/02 06:05:10;;;;;;;5.00;4.30;;;;;;;;;;4220200;33;20121;-57
2021/03/02 06:07:36;;;;;;;5.50;4.70;;;;;;;;;;4220120;33;20460;-57
2021/03/02 06:10:02;;;;;;;6.12;4.53;;;;;;;;;;4220028;33;20098;-57
2021/03/02 06:12:29;;;;;;;5.55;4.85;;;;;;;;;;4233114;33;20101;-57
2021/03/02 06:15:04;;;;;;;5.15;4.28;;;;;;;;;;4232851;33;20105;-57
2021/03/02 06:17:30;;;;;;;;;;;;;;;;;;4208113;33;20100;-57
2021/03/02 06:19:56;;;;;;;5.37;4.85;;;;;;;;;;4219750;33;19987;-56
2021/03/02 06:22:36;;;;;;;6.00;4.70;;;;;;;;;;4208373;33;20139;-56
2021/03/02 06:25:04;;;;;;;6.10;4.93;;;;;;;;;;4219952;33;20125;-56
2021/03/02 06:27:31;;;;;;;6.05;5.32;;;;;;;;;;4219928;33;20117;-57
2021/03/02 06:30:15;;;;;;;5.80;4.80;;;;;;;;;;4232823;33;20185;-56
2021/03/02 06:32:45;;;;;;;5.90;4.57;;;;;;;;;;4232930;33;20117;-57
2021/03/02 06:35:12;;;;;;;5.53;4.43;;;;;;;;;;4220160;33;20525;-57
2021/03/02 06:37:43;;;;;;;5.07;4.57;;;;;;;;;;4232829;33;20604;-55
2021/03/02 06:40:10;;;;;;;5.47;4.57;;;;;;;;;;4232938;33;20132;-56
2021/03/02 06:42:37;;;;;;;5.90;4.80;;;;;;;;;;4232843;33;20100;-57
2021/03/02 06:45:14;;;;;;;5.22;4.30;;;;;;;;;;4196995;33;20204;-57
2021/03/02 06:47:42;;;;;;;4.35;3.80;;;;;;;;;;4219773;33;20105;-56
2021/03/02 06:50:11;;;;;;;5.95;4.60;;;;;;;;;;4232884;33;20260;-56
2021/03/02 06:52:44;;;;;;;7.35;5.18;;;;;;;;;;4219649;33;20525;-56
2021/03/02 06:55:16;;;;;;;7.10;5.32;;;;;;;;;;4219521;33;20121;-57
2021/03/02 06:57:45;;;;;;;5.90;5.15;;;;;;;;;;4232659;33;20457;-56
2021/03/02 07:00:12;;;;;;;5.70;5.07;;;;;;;;;;4232882;33;20200;-57
2021/03/02 07:02:40;;;;;;;10.90;5.18;;;;;;;;;;4232524;33;20084;-57
2021/03/02 07:05:18;;;;;;;5.82;4.80;;;;;;;;;;4232399;33;20121;-57
2021/03/02 07:07:54;;;;;;;6.32;4.90;;;;;;;;;;4219323;33;20086;-57
2021/03/02 07:10:20;;;;;;;7.70;5.43;;;;;;;;;;4219559;33;20101;-57
2021/03/02 07:12:47;;;;;;;4.57;3.58;;;;;;;;;;4219625;33;20093;-56
2021/03/02 07:15:17;;;;;;;4.57;4.07;;;;;;;;;;4219157;33;20124;-57
2021/03/02 07:17:44;;;;;;;5.40;4.90;;;;;;;;;;4232587;33;20113;-56
2021/03/02 07:20:15;;;;;;;7.57;4.60;;;;;;;;;;4219276;33;20480;-57
2021/03/02 07:22:43;;;;;;;5.95;4.60;;;;;;;;;;4232664;33;20105;-57
2021/03/02 07:25:12;;;;;;;5.35;4.80;;;;;;;;;;4219306;33;20101;-56
2021/03/02 07:27:41;;;;;;;6.78;4.55;;;;;;;;;;4232463;33;20136;-58
2021/03/02 07:30:09;;;;;;;6.85;5.18;;;;;;;;;;4232041;33;20089;-57
2021/03/02 07:32:35;;;;;;;5.03;3.85;;;;;;;;;;4219230;33;20137;-58
2021/03/02 07:35:01;;;;;;;6.35;4.80;;;;;;;;;;4207441;33;20461;-58
2021/03/02 07:37:27;;;;;;;5.07;4.25;;;;;;;;;;4219179;33;20121;-57
2021/03/02 07:40:07;;;;;;;5.93;4.62;;;;;;;;;;4232055;33;20231;-58
2021/03/02 07:42:33;;;;;;;7.03;4.87;;;;;;;;;;4219055;33;20596;-56
2021/03/02 07:45:12;;;;;;;6.10;4.80;;;;;;;;;;4219113;33;20148;-57
2021/03/02 07:47:45;;;;;;;6.32;4.93;;;;;;;;;;4232170;33;20144;-56
2021/03/02 07:50:26;;;;;;;5.62;4.75;;;;;;;;;;4219007;33;20196;-57
2021/03/02 07:53:19;;;;;;;6.03;4.68;;;;;;;;;;4232128;33;20100;-56
2021/03/02 07:55:45;;;;;;;5.80;4.72;;;;;;;;;;4232121;33;20188;-56
2021/03/02 07:58:21;;;;;;;5.57;4.85;;;;;;;;;;4207829;33;20541;-56
2021/03/02 08:00:50;;;;;;;5.95;4.60;;;;;;;;;;4231818;33;20457;-56
2021/03/02 08:03:25;;;;;;;6.53;4.85;;;;;;;;;;4207750;33;20124;-58
2021/03/02 08:05:53;;;;;;;6.60;5.12;;;;;;;;;;4231914;33;20105;-56
2021/03/02 08:08:25;;;;;;;7.68;5.30;;;;;;;;;;4218759;33;20143;-58
2021/03/02 08:10:51;;;;;;;5.70;5.20;;;;;;;;;;4231993;33;20531;-59
2021/03/02 08:13:34;;;;;;;6.20;4.95;;;;;;;;;;4232102;33;20186;-59
2021/03/02 08:16:01;;;;;;;6.55;5.30;;;;;;;;;;4218666;33;20090;-58
2021/03/02 08:18:28;;;;;;;5.30;4.80;;;;;;;;;;4231776;33;20113;-59
2021/03/02 08:21:13;;;;;;;5.20;4.68;;;;;;;;;;4231594;33;20113;-59
2021/03/02 08:23:53;;;;;;;5.20;4.70;;;;;;;;;;4218976;33;20118;-58
2021/03/02 08:26:19;;;;;;;7.35;4.82;;;;;;;;;;4231753;33;20168;-59
2021/03/02 08:29:10;;;;;;;5.55;4.60;;;;;;;;;;4218577;33;20108;-59
2021/03/02 08:31:37;;;;;;;4.72;3.90;;;;;;;;;;4218571;33;20136;-56
2021/03/02 08:34:04;;;;;;;5.40;4.18;;;;;;;;;;4207245;33;20101;-57
2021/03/02 08:36:30;;;;;;;9.05;4.85;;;;;;;;;;4206923;33;20685;-57
2021/03/02 08:38:56;;;;;;;5.87;4.75;;;;;;;;;;4218640;33;20089;-57
2021/03/02 08:41:33;;;;;;;5.90;4.80;;;;;;;;;;4232865;33;20113;-58
2021/03/02 08:43:59;;;;;;;6.43;4.37;;;;;;;;;;4233833;33;20550;-56
2021/03/02 08:46:26;;;;;;;6.12;4.60;;;;;;;;;;4220750;33;20104;-56
2021/03/02 08:48:53;;;;;;;5.75;5.15;;;;;;;;;;4233776;33;20502;-55
2021/03/02 08:51:23;;;;;;;5.90;4.80;;;;;;;;;;4233891;33;20545;-57
2021/03/02 08:53:50;;;;;;;5.35;4.85;;;;;;;;;;4233927;33;20094;-56
2021/03/02 08:56:19;;;;;;;5.80;4.80;;;;;;;;;;4220817;33;20209;-56
2021/03/02 08:58:49;;;;;;;6.22;4.80;;;;;;;;;;4233637;33;20168;-56
2021/03/02 09:01:24;;;;;;;5.70;4.95;;;;;;;;;;4233636;33;20100;-55
2021/03/02 09:03:51;;;;;;;6.53;4.55;;;;;;;;;;4233936;33;20296;-57
2021/03/02 09:06:24;;;;;;;6.10;4.78;;;;;;;;;;4220406;33;20132;-56
2021/03/02 09:09:14;;;;;;;5.07;4.57;;;;;;;;;;4233524;33;20458;-55
2021/03/02 09:11:50;;;;;;;5.87;5.25;;;;;;;;;;4208931;33;20097;-55
2021/03/02 09:14:16;;;;;;;;;;;;;;;;;;4234003;33;20094;-53
2021/03/02 09:16:47;;;;;;;6.05;5.45;;;;;;;;;;4233480;33;20064;-56
2021/03/02 09:19:14;;;;;;;7.47;5.55;;;;;;;;;;4220432;33;20098;-56
2021/03/02 09:22:03;;;;;;;6.07;5.10;;;;;;;;;;4233646;33;20125;-56
2021/03/02 09:24:33;;;;;;;6.15;4.75;;;;;;;;;;4233426;33;20216;-58
2021/03/02 09:27:03;;;;;;;5.32;4.57;;;;;;;;;;4233303;33;20097;-56
2021/03/02 09:29:35;;;;;;;7.05;5.37;;;;;;;;;;4233623;33;20128;-57
2021/03/02 09:32:03;;;;;;;5.57;4.97;;;;;;;;;;4233411;33;20115;-57
2021/03/02 09:34:53;;;;;;;5.53;4.62;;;;;;;;;;4233399;33;20111;-58
2021/03/02 09:37:19;;;;;;;9.48;5.32;;;;;;;;;;4233918;33;20090;-58
2021/03/02 09:40:06;;;;;;;6.05;4.95;;;;;;;;;;4220365;33;20112;-56
2021/03/02 09:42:36;;;;;;;5.87;4.80;;;;;;;;;;4220690;33;20192;-56
2021/03/02 09:45:19;;;;;;;5.87;4.93;;;;;;;;;;4233334;33;20096;-57
2021/03/02 09:47:48;;;;;;;5.32;4.78;;;;;;;;;;4221402;33;20626;-58
2021/03/02 09:50:15;;;;;;;6.40;5.32;;;;;;;;;;4220366;33;20121;-56
2021/03/02 09:52:42;;;;;;;5.32;4.60;;;;;;;;;;4233366;33;20088;-53
2021/03/02 09:55:12;;;;;;;6.20;4.40;;;;;;;;;;4220152;33;20113;-57
2021/03/02 09:58:07;;;;;;;6.62;4.70;;;;;;;;;;4233220;33;20112;-56
2021/03/02 10:00:35;;;;;;;7.55;5.07;;;;;;;;;;4233021;33;20109;-57
2021/03/02 10:03:05;;;;;;;5.62;4.65;;;;;;;;;;4233330;33;20129;-54
2021/03/02 10:05:35;;;;;;;8.88;6.55;;;;;;;;;;4219837;33;20113;-57
2021/03/02 10:08:17;;;;;;;6.95;5.50;;;;;;;;;;4211382;34;20106;-57
2021/03/02 10:10:43;;;;;;;6.47;5.10;;;;;;;;;;4219158;33;20133;-57
2021/03/02 10:13:09;;;;;;;6.25;5.32;;;;;;;;;;4219251;34;20486;-56
2021/03/02 10:15:35;;;;;;;8.10;5.30;;;;;;;;;;4219214;33;20117;-55
2021/03/02 10:18:01;;;;;;;7.65;5.35;;;;;;;;;;4206278;34;20132;-57
2021/03/02 10:20:27;;;;;;;7.60;5.53;;;;;;;;;;4219042;33;20277;-59
2021/03/02 10:23:03;;;;;;;6.70;5.07;;;;;;;;;;4194832;34;20117;-58
2021/03/02 10:25:39;;;;;;;5.95;4.93;;;;;;;;;;4219301;33;20109;-57
2021/03/02 10:28:06;;;;;;;7.25;5.57;;;;;;;;;;4219163;34;20109;-58
2021/03/02 10:30:31;;;;;;;5.62;5.05;;;;;;;;;;4206111;34;20573;-60
2021/03/02 10:32:57;;;;;;;7.97;5.85;;;;;;;;;;4206407;34;20098;-60
2021/03/02 10:35:23;;;;;;;8.35;5.43;;;;;;;;;;4218868;33;20105;-60
2021/03/02 10:37:49;;;;;;;7.25;5.87;;;;;;;;;;4219141;33;20114;-57
2021/03/02 10:40:16;;;;;;;7.12;5.62;;;;;;;;;;4218888;33;20517;-55
2021/03/02 10:42:41;;;;;;;7.10;5.90;;;;;;;;;;4219145;34;20116;-55
2021/03/02 10:45:08;;;;;;;6.45;5.55;;;;;;;;;;4218959;33;20453;-56
2021/03/02 10:47:34;;;;;;;6.25;5.10;;;;;;;;;;4218899;34;20516;-60
2021/03/02 10:50:00;;;;;;;8.38;6.70;;;;;;;;;;4218870;33;20204;-55
2021/03/02 10:52:26;;;;;;;8.18;5.87;;;;;;;;;;4194429;34;20121;-57
2021/03/02 10:54:52;;;;;;;8.13;7.05;;;;;;;;;;4194310;33;20559;-57
2021/03/02 10:57:18;;;;;;;7.00;6.30;;;;;;;;;;4218845;34;20136;-53
2021/03/02 10:59:45;;;;;;;7.10;6.40;;;;;;;;;;4205778;33;20212;-53
2021/03/02 11:02:11;;;;;;;7.75;6.12;;;;;;;;;;4194432;34;20108;-55
2021/03/02 11:04:37;;;;;;;8.55;7.20;;;;;;;;;;4218196;34;20181;-55
2021/03/02 11:07:03;;;;;;;8.25;6.68;;;;;;;;;;4207341;33;20190;-56
2021/03/02 11:09:29;;;;;;;7.97;6.35;;;;;;;;;;4232982;33;20127;-56
2021/03/02 11:11:55;;;;;;;7.70;6.82;;;;;;;;;;4232670;33;20252;-58
2021/03/02 11:14:20;;;;;;;8.05;7.03;;;;;;;;;;4232776;33;20116;-55
2021/03/02 11:16:47;;;;;;;8.40;6.70;;;;;;;;;;4232527;33;20204;-55
2021/03/02 11:19:14;;;;;;;8.77;6.85;;;;;;;;;;4232835;33;20109;-53
2021/03/02 11:21:40;;;;;;;6.65;5.40;;;;;;;;;;4232572;33;20199;-58
2021/03/02 11:24:06;;;;;;;9.20;7.47;;;;;;;;;;4232862;33;20223;-57
2021/03/02 11:26:32;;;;;;;9.20;7.18;;;;;;;;;;4232618;33;20131;-58
2021/03/02 11:28:58;;;;;;;7.62;6.70;;;;;;;;;;4219407;33;20561;-55
2021/03/02 11:31:24;;;;;;;8.98;7.10;;;;;;;;;;4232427;33;20132;-57
2021/03/02 11:33:49;;;;;;;7.62;6.28;;;;;;;;;;4232421;33;20219;-54
2021/03/02 11:36:16;;;;;;;8.57;7.43;;;;;;;;;;4232381;33;20521;-56
2021/03/02 11:38:41;;;;;;;8.30;6.87;;;;;;;;;;4230989;33;20098;-57
2021/03/02 11:41:07;;;;;;;8.52;7.53;;;;;;;;;;4219171;33;20118;-56
2021/03/02 11:43:33;;;;;;;7.87;6.70;;;;;;;;;;4232308;33;20103;-57
2021/03/02 11:45:59;;;;;;;8.15;6.87;;;;;;;;;;4232415;33;20119;-56
2021/03/02 11:48:25;;;;;;;9.60;6.87;;;;;;;;;;4232665;33;20257;-55
2021/03/02 11:50:51;;;;;;;7.87;6.95;;;;;;;;;;4232206;33;20521;-58
2021/03/02 11:53:17;;;;;;;8.75;6.53;;;;;;;;;;4232460;33;20109;-56
2021/03/02 11:55:43;;;;;;;8.23;6.57;;;;;;;;;;4232301;33;20583;-57
2021/03/02 11:58:09;;;;;;;6.80;5.82;;;;;;;;;;4232285;33;20112;-56
2021/03/02 12:00:35;;;;;;;6.70;6.00;;;;;;;;;;4232021;33;20116;-56
2021/03/02 12:03:01;;;;;;;7.55;6.10;;;;;;;;;;4232208;33;20124;-56
2021/03/02 12:05:27;;;;;;;7.90;6.35;;;;;;;;;;4231909;33;20124;-58
2021/03/02 12:07:53;;;;;;;7.10;6.25;;;;;;;;;;4219011;33;20093;-58
2021/03/02 12:10:19;;;;;;;8.82;7.35;;;;;;;;;;4219059;33;20113;-59
2021/03/02 12:12:45;;;;;;;7.03;6.32;;;;;;;;;;4232264;33;20189;-57
2021/03/02 12:15:11;;;;;;;6.62;5.93;;;;;;;;;;4219212;33;20111;-58
2021/03/02 12:17:37;;;;;;;8.02;7.12;;;;;;;;;;4234396;33;20113;-57
2021/03/02 12:20:04;;;;;;;7.18;6.12;;;;;;;;;;4234374;33;20211;-56
2021/03/02 12:22:30;;;;;;;7.10;5.70;;;;;;;;;;4221436;33;20096;-59
2021/03/02 12:24:56;;;;;;;7.35;6.15;;;;;;;;;;4234338;33;20117;-57
2021/03/02 12:27:23;;;;;;;6.68;5.72;;;;;;;;;;4234160;33;20113;-57
2021/03/02 12:29:49;;;;;;;7.40;5.78;;;;;;;;;;4233887;33;20124;-58
2021/03/02 12:32:15;;;;;;;6.40;5.70;;;;;;;;;;4234101;33;20101;-53
2021/03/02 12:34:41;;;;;;;6.57;5.40;;;;;;;;;;4233902;33;20112;-53
2021/03/02 12:37:06;;;;;;;6.75;5.47;;;;;;;;;;4234058;33;20113;-56
2021/03/02 12:39:32;;;;;;;6.62;5.53;;;;;;;;;;4233901;33;20137;-55
2021/03/02 12:41:58;;;;;;;6.97;5.37;;;;;;;;;;4233952;33;20140;-58
2021/03/02 12:44:24;;;;;;;7.70;5.60;;;;;;;;;;4233957;33;20135;-59
2021/03/02 12:46:50;;;;;;;6.68;5.43;;;;;;;;;;4233847;33;20133;-57
2021/03/02 12:49:16;;;;;;;6.10;5.45;;;;;;;;;;4221173;33;20160;-59
2021/03/02 12:51:42;;;;;;;6.05;5.25;;;;;;;;;;4234108;33;20128;-56
2021/03/02 12:54:09;;;;;;;6.90;5.57;;;;;;;;;;4221051;33;20120;-56
2021/03/02 12:56:34;;;;;;;6.20;5.60;;;;;;;;;;4233776;33;20101;-60
2021/03/02 12:59:00;;;;;;;7.95;5.70;;;;;;;;;;4220636;33;20116;-59
2021/03/02 13:01:29;;;;;;;5.65;5.05;;;;;;;;;;4220825;33;20117;-59
2021/03/02 13:03:56;;;;;;;5.95;5.18;;;;;;;;;;4233893;33;20098;-58
2021/03/02 13:06:22;;;;;;;6.93;5.25;;;;;;;;;;4233697;33;20139;-58
2021/03/02 13:08:48;;;;;;;5.50;4.82;;;;;;;;;;4220758;33;20122;-59
2021/03/02 13:11:14;;;;;;;5.93;5.12;;;;;;;;;;4233964;33;20544;-59
2021/03/02 13:13:41;;;;;;;6.12;5.53;;;;;;;;;;4233702;33;20105;-60
2021/03/02 13:16:07;;;;;;;5.47;4.87;;;;;;;;;;4208883;33;20514;-57
2021/03/02 13:18:35;;;;;;;6.10;5.10;;;;;;;;;;4208889;33;20093;-61
2021/03/02 13:21:19;;;;;;;5.30;4.80;;;;;;;;;;4209080;33;20123;-61
2021/03/02 13:23:48;;;;;;;5.53;4.75;;;;;;;;;;4220224;33;20220;-59
2021/03/02 13:26:24;;;;;;;5.53;4.85;;;;;;;;;;4220295;33;20228;-59
2021/03/02 13:28:50;;;;;;;5.45;4.90;;;;;;;;;;4209835;33;20125;-59
2021/03/02 13:31:16;;;;;;;6.80;6.05;;;;;;;;;;4233383;33;20543;-58
2021/03/02 13:33:43;;;;;;;6.90;4.70;;;;;;;;;;4233633;33;20477;-61
2021/03/02 13:36:10;;;;;;;5.15;4.65;;;;;;;;;;4220559;33;20127;-60
2021/03/02 13:38:41;;;;;;;6.10;5.20;;;;;;;;;;4233665;33;20101;-61
2021/03/02 13:41:08;;;;;;;5.47;4.57;;;;;;;;;;4208870;33;20120;-56
2021/03/02 13:43:36;;;;;;;5.07;4.60;;;;;;;;;;4220294;33;20113;-58
2021/03/02 13:46:02;;;;;;;6.55;4.90;;;;;;;;;;4233027;33;20113;-57
2021/03/02 13:48:30;;;;;;;5.90;5.20;;;;;;;;;;4220106;33;20435;-59
2021/03/02 13:50:56;;;;;;;5.72;5.05;;;;;;;;;;4233276;33;20128;-58
2021/03/02 13:53:21;;;;;;;5.57;5.03;;;;;;;;;;4220309;33;20109;-57
2021/03/02 13:55:51;;;;;;;5.22;4.72;;;;;;;;;;4233044;33;20121;-58
2021/03/02 13:58:17;;;;;;;6.55;5.05;;;;;;;;;;4232797;33;20129;-57
2021/03/02 14:00:43;;;;;;;4.93;4.43;;;;;;;;;;4208398;33;20634;-58
2021/03/02 14:03:12;;;;;;;4.90;4.50;;;;;;;;;;4220160;33;20132;-57
2021/03/02 14:05:38;;;;;;;5.28;4.78;;;;;;;;;;4232833;33;20113;-57
2021/03/02 14:08:04;;;;;;;5.35;4.85;;;;;;;;;;4196747;33;20505;-57
2021/03/02 14:10:31;;;;;;;6.37;5.40;;;;;;;;;;4232945;33;20121;-59
2021/03/02 14:12:58;;;;;;;5.45;4.60;;;;;;;;;;4220007;33;20207;-59
2021/03/02 14:15:24;;;;;;;5.20;4.70;;;;;;;;;;4232922;33;20113;-58
2021/03/02 14:17:52;;;;;;;5.93;5.18;;;;;;;;;;4232982;33;20189;-58
2021/03/02 14:20:19;;;;;;;5.62;5.12;;;;;;;;;;4232863;33;20108;-57
2021/03/02 14:22:45;;;;;;;5.78;5.28;;;;;;;;;;4220036;33;20113;-58
2021/03/02 14:25:12;;;;;;;5.22;4.72;;;;;;;;;;4220031;33;20318;-59
2021/03/02 14:27:38;;;;;;;5.20;4.70;;;;;;;;;;4232756;33;20132;-59
2021/03/02 14:30:10;;;;;;;6.25;5.10;;;;;;;;;;4232997;33;20208;-58
2021/03/02 14:32:36;;;;;;;4.87;4.40;;;;;;;;;;4219589;33;20117;-58
2021/03/02 14:35:09;;;;;;;6.35;5.75;;;;;;;;;;4232866;33;20112;-59
2021/03/02 14:37:36;;;;;;;6.07;4.95;;;;;;;;;;4219359;33;20123;-58
2021/03/02 14:40:03;;;;;;;5.72;3.08;;;;;;;;;;4219563;33;20113;-58
2021/03/02 14:42:30;;;;;;;4.37;2.83;;;;;;;;;;4232648;33;20100;-57
2021/03/02 14:45:06;;;;;;;4.93;3.83;;;;;;;;;;4232790;33;20132;-58
2021/03/02 14:47:44;;;;;;;3.85;2.95;;;;;;;;;;4232681;33;20200;-58
2021/03/02 14:50:12;;;;;;;6.62;3.50;;;;;;;;;;4219946;33;20115;-58
2021/03/02 14:52:38;;;;;;;7.45;3.62;;;;;;;;;;4219784;33;20120;-58
2021/03/02 14:55:06;;;;;;;3.67;2.75;;;;;;;;;;4232459;33;20116;-58